Dyna Camellia — VRCR2 — position and weather

sailwx.info

Track history (hours):
 
Tides and Currents Weather Stations Pressure Air Temp Water Temp Dewpoint Dewpoint Depression Visibility Wind Speed Wind Dir Waves Ship Positions

Dyna Camellia

Last reported at 2017-Oct-29 14:21 UTC. Time now 2017-Dec-16 05:15 UTC.
Position N 33°59' E 134°57'.
Warning: this ship's position is 47 days out of date.

Length 234 m; draft 7.7 m.

Type: Cargo ship. MMSI: 477658500.

Date/timePositionNaut miles runAvg speedWind from/ knotsBaromVisibWave heightAir tempDewpointWater temp
2017-Oct-29 14:21N 33°59' E 134°57'513.9
2017-Oct-29 14:01N 34°04' E 134°57'713.9
2017-Oct-29 13:30N 34°11' E 134°57'510.5
2017-Oct-29 12:59N 34°16' E 134°58'713.0
2017-Oct-29 12:29N 34°22' E 135°00'713.5
2017-Oct-29 11:59N 34°29' E 135°03'511.4
2017-Oct-29 11:30N 34°34' E 135°06'611.0
2017-Oct-29 11:00N 34°37' E 135°01'713.3
2017-Oct-29 10:30N 34°35' E 134°53'813.5
2017-Oct-29 09:54N 34°31' E 134°44'  
2017-Oct-19 20:36N 34°33' E 134°45'111.8
2017-Oct-19 20:28N 34°33' E 134°47'612.7
2017-Oct-19 19:59N 34°36' E 134°54'611.7
2017-Oct-19 19:26N 34°37' E 135°01'410.1
2017-Oct-19 19:00N 34°35' E 135°06'3 6.4
2017-Oct-19 18:30N 34°34' E 135°09'0 0.2
2017-Oct-19 17:56N 34°33' E 135°09'0 0.0
2017-Oct-19 17:27N 34°33' E 135°09'0 0.0
2017-Oct-19 16:57N 34°33' E 135°09'0 0.1
2017-Oct-19 16:27N 34°33' E 135°09'0 0.1
2017-Oct-19 15:57N 34°33' E 135°09'0 0.0
2017-Oct-19 15:20N 34°33' E 135°09'0 0.1
2017-Oct-19 14:57N 34°33' E 135°09'0 0.0
2017-Oct-19 14:26N 34°33' E 135°09'  
Track history (hours):
 
Tides and Currents Weather Stations Pressure Air Temp Water Temp Dewpoint Dewpoint Depression Visibility Wind Speed Wind Dir Waves Ship Positions

Dyna Camellia

Last reported at 2017-Oct-29 14:21 UTC. Time now 2017-Dec-16 05:15 UTC.
Position N 33°59' E 134°57'.
Warning: this ship's position is 47 days out of date.

Length 234 m; draft 7.7 m.

Type: Cargo ship. MMSI: 477658500.

Date/timePositionNaut miles runAvg speedWind from/ knotsBaromVisibWave heightAir tempDewpointWater temp
2017-Oct-29 14:21N 33°59' E 134°57'513.9
2017-Oct-29 14:01N 34°04' E 134°57'713.9
2017-Oct-29 13:30N 34°11' E 134°57'510.5
2017-Oct-29 12:59N 34°16' E 134°58'713.0
2017-Oct-29 12:29N 34°22' E 135°00'713.5
2017-Oct-29 11:59N 34°29' E 135°03'511.4
2017-Oct-29 11:30N 34°34' E 135°06'611.0
2017-Oct-29 11:00N 34°37' E 135°01'713.3
2017-Oct-29 10:30N 34°35' E 134°53'813.5
2017-Oct-29 09:54N 34°31' E 134°44'  
2017-Oct-19 20:36N 34°33' E 134°45'111.8
2017-Oct-19 20:28N 34°33' E 134°47'612.7
2017-Oct-19 19:59N 34°36' E 134°54'611.7
2017-Oct-19 19:26N 34°37' E 135°01'410.1
2017-Oct-19 19:00N 34°35' E 135°06'3 6.4
2017-Oct-19 18:30N 34°34' E 135°09'0 0.2
2017-Oct-19 17:56N 34°33' E 135°09'0 0.0
2017-Oct-19 17:27N 34°33' E 135°09'0 0.0
2017-Oct-19 16:57N 34°33' E 135°09'0 0.1
2017-Oct-19 16:27N 34°33' E 135°09'0 0.1
2017-Oct-19 15:57N 34°33' E 135°09'0 0.0
2017-Oct-19 15:20N 34°33' E 135°09'0 0.1
2017-Oct-19 14:57N 34°33' E 135°09'0 0.0
2017-Oct-19 14:26N 34°33' E 135°09'  

Dump ship's entire track history